createdAt,value
2023-01-22T00:01:18.573Z,7.10
2023-01-22T00:03:46.988Z,7.60
2023-01-22T00:06:14.365Z,6.97
2023-01-22T00:08:41.296Z,6.87
2023-01-22T00:11:08.407Z,6.90
2023-01-22T00:13:35.413Z,6.97
2023-01-22T00:16:02.128Z,6.80
2023-01-22T00:18:28.850Z,7.63
2023-01-22T00:20:56.162Z,7.20
2023-01-22T00:23:24.117Z,6.73
2023-01-22T00:26:00.576Z,7.30
2023-01-22T00:28:27.324Z,7.60
2023-01-22T00:31:01.853Z,7.00
2023-01-22T00:33:29.064Z,6.60
2023-01-22T00:35:56.681Z,6.70
2023-01-22T00:38:23.512Z,6.67
2023-01-22T00:40:50.113Z,6.97
2023-01-22T00:43:16.736Z,6.50
2023-01-22T00:45:43.532Z,6.77
2023-01-22T00:48:10.249Z,6.93
2023-01-22T00:50:36.937Z,6.73
2023-01-22T00:53:04.067Z,6.40
2023-01-22T00:55:31.455Z,6.47
2023-01-22T00:57:58.155Z,6.97
2023-01-22T01:00:24.820Z,6.73
2023-01-22T01:03:10.197Z,6.67
2023-01-22T01:05:37.478Z,6.50
2023-01-22T01:08:04.879Z,6.33
2023-01-22T01:10:31.538Z,5.93
2023-01-22T01:12:58.348Z,6.13
2023-01-22T01:15:25.041Z,5.57
2023-01-22T01:17:51.743Z,6.37
2023-01-22T01:20:18.738Z,6.10
2023-01-22T01:22:45.646Z,5.77
2023-01-22T01:25:12.902Z,5.63
2023-01-22T01:27:39.729Z,6.20
2023-01-22T01:30:07.566Z,5.90
2023-01-22T01:32:34.232Z,5.47
2023-01-22T01:35:01.117Z,5.43
2023-01-22T01:37:27.767Z,6.23
2023-01-22T01:40:21.044Z,5.30
2023-01-22T01:46:29.220Z,5.20
2023-01-22T01:48:55.952Z,4.97
2023-01-22T01:51:33.354Z,5.10
2023-01-22T01:54:02.535Z,4.70
2023-01-22T01:56:39.826Z,4.83
2023-01-22T01:59:12.668Z,4.83
2023-01-22T02:01:39.912Z,4.67
2023-01-22T02:04:07.350Z,4.47
2023-01-22T02:06:34.279Z,4.67
2023-01-22T02:09:02.237Z,4.77
2023-01-22T02:11:29.765Z,4.70
2023-01-22T02:14:04.976Z,4.30
2023-01-22T02:16:32.031Z,4.23
2023-01-22T02:18:58.725Z,4.60
2023-01-22T02:21:33.597Z,4.57
2023-01-22T02:24:00.206Z,4.63
2023-01-22T02:26:27.201Z,4.73
2023-01-22T02:28:54.652Z,4.97
2023-01-22T02:31:21.420Z,5.23
2023-01-22T02:33:48.116Z,5.07
2023-01-22T02:36:16.380Z,5.00
2023-01-22T02:38:43.917Z,5.40
2023-01-22T02:41:11.069Z,5.67
2023-01-22T02:43:37.804Z,5.60
2023-01-22T02:46:05.033Z,5.83
2023-01-22T02:48:32.745Z,6.47
2023-01-22T02:50:59.659Z,6.50
2023-01-22T02:53:26.274Z,6.20
2023-01-22T02:55:52.929Z,6.60
2023-01-22T02:58:19.695Z,6.37
2023-01-22T03:00:49.587Z,6.70
2023-01-22T03:03:18.242Z,7.53
2023-01-22T03:05:48.805Z,7.00
2023-01-22T03:08:16.806Z,6.60
2023-01-22T03:10:43.496Z,6.63
2023-01-22T03:13:28.566Z,6.13
2023-01-22T03:16:14.502Z,6.70
2023-01-22T03:18:59.883Z,6.33
2023-01-22T03:21:27.200Z,6.80
2023-01-22T03:23:55.673Z,6.63
2023-01-22T03:26:24.219Z,6.37
2023-01-22T03:28:51.606Z,6.33
2023-01-22T03:31:18.716Z,6.27
2023-01-22T03:33:45.849Z,6.37
2023-01-22T03:36:14.849Z,6.00
2023-01-22T03:38:42.305Z,5.67
2023-01-22T03:41:15.646Z,6.10
2023-01-22T03:43:42.886Z,6.47
2023-01-22T03:46:16.847Z,6.20
2023-01-22T03:48:43.955Z,6.13
2023-01-22T03:51:14.045Z,6.30
2023-01-22T03:53:41.922Z,6.43
2023-01-22T03:56:11.660Z,6.23
2023-01-22T03:58:38.528Z,6.47
2023-01-22T04:01:08.924Z,6.70
2023-01-22T04:03:36.561Z,6.23
2023-01-22T04:06:04.311Z,6.13
2023-01-22T04:08:33.357Z,6.47
2023-01-22T04:11:00.911Z,6.20
2023-01-22T04:13:28.906Z,5.70
2023-01-22T04:15:55.516Z,5.87
2023-01-22T04:18:22.305Z,6.43
2023-01-22T04:20:49.363Z,6.10
2023-01-22T04:23:16.481Z,6.03
2023-01-22T04:25:44.861Z,6.27
2023-01-22T04:28:12.575Z,6.10
2023-01-22T04:30:39.368Z,6.20
2023-01-22T04:33:06.180Z,6.00
2023-01-22T04:35:33.217Z,5.73
2023-01-22T04:37:59.926Z,5.47
2023-01-22T04:40:26.592Z,5.77
2023-01-22T04:42:53.125Z,5.67
2023-01-22T04:45:20.403Z,5.63
2023-01-22T04:47:48.692Z,5.20
2023-01-22T04:50:18.170Z,5.77
2023-01-22T04:52:45.182Z,5.57
2023-01-22T04:55:12.972Z,6.03
2023-01-22T04:57:39.569Z,5.57
2023-01-22T05:00:07.074Z,5.37
2023-01-22T05:02:33.757Z,5.90
2023-01-22T05:05:00.326Z,6.20
2023-01-22T05:07:26.970Z,5.90
2023-01-22T05:09:55.467Z,5.67
2023-01-22T05:12:22.021Z,5.70
2023-01-22T05:14:48.794Z,6.00
2023-01-22T05:17:15.406Z,5.47
2023-01-22T05:19:42.131Z,6.00
2023-01-22T05:22:09.064Z,5.83
2023-01-22T05:24:35.677Z,5.67
2023-01-22T05:27:02.894Z,5.70
2023-01-22T05:29:29.631Z,5.60
2023-01-22T05:31:57.546Z,5.50
2023-01-22T05:34:24.997Z,5.80
2023-01-22T05:36:53.109Z,6.10
2023-01-22T05:39:20.364Z,5.73
2023-01-22T05:41:48.991Z,5.57
2023-01-22T05:44:15.568Z,6.13
2023-01-22T05:46:42.096Z,5.20
2023-01-22T05:49:08.705Z,5.73
2023-01-22T05:51:35.509Z,5.83
2023-01-22T05:54:02.175Z,5.50
2023-01-22T05:56:29.700Z,5.63
2023-01-22T05:58:56.283Z,5.57
2023-01-22T06:01:23.074Z,5.47
2023-01-22T06:03:49.728Z,6.00
2023-01-22T06:06:17.181Z,5.80
2023-01-22T06:08:45.902Z,5.67
2023-01-22T06:11:15.498Z,6.07
2023-01-22T06:13:43.383Z,5.80
2023-01-22T06:16:10.427Z,5.20
2023-01-22T06:18:37.106Z,5.80
2023-01-22T06:21:06.762Z,5.17
2023-01-22T06:23:33.634Z,5.00
2023-01-22T06:26:02.081Z,5.53
2023-01-22T06:28:28.853Z,5.37
2023-01-22T06:30:58.517Z,5.13
2023-01-22T06:33:25.660Z,5.13
2023-01-22T06:35:55.774Z,5.10
2023-01-22T06:38:23.206Z,5.37
2023-01-22T06:40:55.450Z,5.50
2023-01-22T06:43:22.349Z,5.27
2023-01-22T06:45:48.892Z,5.40
2023-01-22T06:48:16.468Z,5.53
2023-01-22T06:50:43.431Z,5.63
2023-01-22T06:53:10.338Z,5.40
2023-01-22T06:55:37.476Z,5.13
2023-01-22T06:58:04.617Z,5.27
2023-01-22T07:00:31.719Z,5.77
2023-01-22T07:02:58.342Z,5.47
2023-01-22T07:05:25.122Z,5.37
2023-01-22T07:07:55.260Z,5.87
2023-01-22T07:10:22.488Z,5.47
2023-01-22T07:12:55.822Z,5.30
2023-01-22T07:15:24.271Z,5.60
2023-01-22T07:17:52.245Z,6.53
2023-01-22T07:20:20.532Z,5.20
2023-01-22T07:22:47.382Z,5.77
2023-01-22T07:25:14.023Z,5.33
2023-01-22T07:27:40.597Z,5.67
2023-01-22T07:30:08.025Z,5.33
2023-01-22T07:32:35.391Z,5.90
2023-01-22T07:35:02.076Z,5.33
2023-01-22T07:37:28.683Z,5.47
2023-01-22T07:39:55.453Z,5.40
2023-01-22T07:42:22.056Z,5.30
2023-01-22T07:44:48.867Z,5.37
2023-01-22T07:47:15.416Z,5.60
2023-01-22T07:49:42.010Z,5.37
2023-01-22T07:52:08.721Z,5.60
2023-01-22T07:54:36.419Z,5.00
2023-01-22T07:57:04.014Z,5.40
2023-01-22T07:59:30.861Z,5.60
2023-01-22T08:01:57.583Z,5.13
2023-01-22T08:04:25.300Z,5.23
2023-01-22T08:06:52.366Z,5.23
2023-01-22T08:09:24.867Z,5.47
2023-01-22T08:11:53.050Z,5.37
2023-01-22T08:14:20.147Z,5.27
2023-01-22T08:16:47.514Z,5.00
2023-01-22T08:19:15.664Z,5.67
2023-01-22T08:21:42.218Z,5.60
2023-01-22T08:24:10.324Z,5.50
2023-01-22T08:26:38.058Z,5.47
2023-01-22T08:29:07.459Z,4.90
2023-01-22T08:31:36.024Z,5.23
2023-01-22T08:34:03.485Z,5.93
2023-01-22T08:36:30.173Z,5.00
2023-01-22T08:38:56.905Z,5.30
2023-01-22T08:41:24.191Z,5.10
2023-01-22T08:43:53.894Z,5.47
2023-01-22T08:46:20.668Z,4.97
2023-01-22T08:48:48.799Z,5.50
2023-01-22T08:51:15.539Z,5.17
2023-01-22T08:53:42.286Z,5.63
2023-01-22T08:56:09.222Z,5.10
2023-01-22T08:58:35.842Z,5.13
2023-01-22T09:01:02.635Z,4.67
2023-01-22T09:03:30.331Z,4.97
2023-01-22T09:05:58.983Z,5.07
2023-01-22T09:08:25.764Z,4.53
2023-01-22T09:10:58.025Z,4.87
2023-01-22T09:13:24.616Z,4.67
2023-01-22T09:15:51.361Z,4.50
2023-01-22T09:18:17.951Z,5.17
2023-01-22T09:20:45.275Z,5.63
2023-01-22T09:23:13.657Z,5.07
2023-01-22T09:25:42.240Z,4.80
2023-01-22T09:28:13.445Z,4.97
2023-01-22T09:30:42.380Z,4.63
2023-01-22T09:33:10.999Z,4.93
2023-01-22T09:35:38.495Z,4.33
2023-01-22T09:38:10.418Z,4.87
2023-01-22T09:40:54.893Z,4.90
2023-01-22T09:43:30.565Z,4.73
2023-01-22T09:46:01.644Z,4.47
2023-01-22T09:48:41.242Z,4.23
2023-01-22T09:51:20.834Z,4.57
2023-01-22T09:54:04.095Z,5.20
2023-01-22T09:56:40.305Z,4.43
2023-01-22T09:59:13.366Z,5.00
2023-01-22T10:01:41.118Z,4.70
2023-01-22T10:04:29.568Z,4.40
2023-01-22T10:06:58.204Z,5.03
2023-01-22T10:09:35.889Z,4.80
2023-01-22T10:12:13.506Z,4.93
2023-01-22T10:14:42.483Z,4.60
2023-01-22T10:17:18.925Z,4.70
2023-01-22T10:19:54.084Z,4.50
2023-01-22T10:22:23.944Z,4.30
2023-01-22T10:24:51.810Z,4.90
2023-01-22T10:27:33.706Z,4.53
2023-01-22T10:30:16.272Z,4.83
2023-01-22T10:32:43.241Z,4.90
2023-01-22T10:35:21.993Z,4.93
2023-01-22T10:37:51.839Z,5.00
2023-01-22T10:40:41.330Z,4.30
2023-01-22T10:43:17.684Z,4.53
2023-01-22T10:45:59.686Z,4.90
2023-01-22T10:48:26.644Z,4.60
2023-01-22T10:51:13.456Z,4.23
2023-01-22T10:53:51.319Z,3.93
2023-01-22T10:56:40.387Z,4.03
2023-01-22T10:59:22.979Z,4.30
2023-01-22T11:01:57.536Z,3.90
2023-01-22T11:04:29.920Z,4.00
2023-01-22T11:07:09.521Z,4.00
2023-01-22T11:10:07.689Z,3.87
2023-01-22T11:12:45.574Z,3.80
2023-01-22T11:15:33.149Z,3.40
2023-01-22T11:18:06.121Z,4.07
2023-01-22T11:20:46.003Z,3.50
2023-01-22T11:23:52.546Z,3.63
2023-01-22T11:26:41.335Z,3.73
2023-01-22T11:29:31.738Z,3.57
2023-01-22T11:32:27.115Z,3.83
2023-01-22T11:35:13.964Z,3.70
2023-01-22T11:37:52.384Z,3.73
2023-01-22T11:40:23.975Z,4.23
2023-01-22T11:43:18.814Z,3.80
2023-01-22T11:46:10.301Z,3.93
2023-01-22T11:49:15.881Z,3.63
2023-01-22T11:54:56.474Z,4.07
2023-01-22T11:57:26.208Z,3.80
2023-01-22T12:00:19.438Z,3.57
2023-01-22T12:03:07.466Z,3.70
2023-01-22T12:05:47.488Z,4.50
2023-01-22T12:08:38.698Z,4.18
2023-01-22T12:11:19.784Z,4.03
2023-01-22T12:14:12.579Z,3.43
2023-01-22T12:17:01.536Z,3.47
2023-01-22T12:19:59.804Z,3.30
2023-01-22T12:22:48.335Z,3.50
2023-01-22T12:25:23.629Z,3.37
2023-01-22T12:28:00.100Z,3.40
2023-01-22T12:30:48.067Z,4.07
2023-01-22T12:33:19.272Z,3.60
2023-01-22T12:35:51.760Z,3.93
2023-01-22T12:38:31.710Z,4.10
2023-01-22T12:41:37.046Z,3.28
2023-01-22T12:44:44.845Z,3.73
2023-01-22T12:47:26.723Z,3.95
2023-01-22T12:49:53.702Z,3.80
2023-01-22T12:52:35.533Z,3.33
2023-01-22T12:55:22.563Z,4.00
2023-01-22T12:57:51.605Z,3.95
2023-01-22T13:03:33.153Z,4.40
2023-01-22T13:06:21.527Z,4.35
2023-01-22T13:08:48.415Z,4.77
2023-01-22T13:11:30.228Z,4.43
2023-01-22T13:14:18.943Z,4.50
2023-01-22T13:16:55.430Z,4.17
2023-01-22T13:19:39.185Z,3.97
2023-01-22T13:22:08.117Z,4.63
2023-01-22T13:24:34.762Z,4.17
2023-01-22T13:27:03.595Z,3.90
2023-01-22T13:29:37.485Z,4.50
2023-01-22T13:32:23.362Z,4.10
2023-01-22T13:34:50.083Z,4.37
2023-01-22T13:37:31.005Z,4.53
2023-01-22T13:40:24.819Z,4.90
2023-01-22T13:42:51.810Z,4.30
2023-01-22T13:45:39.905Z,3.43
2023-01-22T13:48:06.866Z,4.17
2023-01-22T13:51:20.069Z,4.57
2023-01-22T13:53:51.993Z,3.73
2023-01-22T14:02:54.750Z,3.83
2023-01-22T14:12:27.317Z,4.50
2023-01-22T14:18:31.607Z,3.30
2023-01-22T14:20:58.218Z,3.43
2023-01-22T14:23:24.865Z,3.47
2023-01-22T14:25:54.248Z,3.33
2023-01-22T14:28:22.311Z,3.33
2023-01-22T14:30:49.349Z,3.60
2023-01-22T14:33:23.840Z,4.07
2023-01-22T14:35:51.079Z,3.63
2023-01-22T14:38:18.845Z,3.67
2023-01-22T14:40:45.770Z,3.77
2023-01-22T14:43:12.319Z,3.60
2023-01-22T14:45:44.201Z,3.43
2023-01-22T14:48:13.303Z,3.50
2023-01-22T14:50:40.858Z,3.73
2023-01-22T14:53:08.677Z,3.20
2023-01-22T14:55:36.565Z,3.83
2023-01-22T14:58:03.332Z,3.78
2023-01-22T15:00:30.167Z,3.30
2023-01-22T15:02:58.758Z,3.40
2023-01-22T15:05:26.669Z,3.17
2023-01-22T15:07:53.598Z,3.67
2023-01-22T15:10:21.028Z,3.53
2023-01-22T15:12:51.756Z,3.10
2023-01-22T15:15:25.235Z,3.60
2023-01-22T15:17:53.176Z,3.60
2023-01-22T15:20:21.454Z,4.07
2023-01-22T15:22:49.732Z,3.13
2023-01-22T15:25:16.580Z,3.37
2023-01-22T15:27:44.467Z,3.40
2023-01-22T15:30:12.615Z,3.00
2023-01-22T15:32:39.347Z,3.57
2023-01-22T15:35:06.614Z,3.40
2023-01-22T15:37:33.350Z,3.67
2023-01-22T15:40:00.189Z,3.20
2023-01-22T15:42:26.959Z,2.93
2023-01-22T15:44:53.657Z,3.20
2023-01-22T15:47:20.375Z,3.50
2023-01-22T15:49:47.114Z,3.33
2023-01-22T15:52:13.834Z,3.60
2023-01-22T15:54:40.479Z,3.30
2023-01-22T15:57:07.706Z,3.77
2023-01-22T15:59:34.495Z,3.40
2023-01-22T16:02:01.370Z,3.77
2023-01-22T16:04:28.065Z,3.67
2023-01-22T16:06:54.799Z,4.30
2023-01-22T16:09:21.525Z,3.47
2023-01-22T16:11:48.450Z,3.03
2023-01-22T16:14:15.156Z,2.90
2023-01-22T16:16:41.933Z,3.47
2023-01-22T16:19:16.117Z,3.10
2023-01-22T16:21:45.013Z,3.50
2023-01-22T16:24:11.747Z,3.07
2023-01-22T16:26:38.465Z,2.70
2023-01-22T16:29:06.396Z,2.83
2023-01-22T16:31:35.453Z,2.50
2023-01-22T16:34:14.781Z,3.00
2023-01-22T16:36:43.108Z,3.20
2023-01-22T16:39:16.733Z,3.10
2023-01-22T16:41:43.493Z,2.90
2023-01-22T16:44:12.794Z,2.80
2023-01-22T16:46:43.304Z,2.60
2023-01-22T16:49:20.381Z,2.60
2023-01-22T16:51:49.645Z,2.80
2023-01-22T16:54:19.707Z,2.70
2023-01-22T16:56:46.694Z,3.03
2023-01-22T16:59:13.618Z,3.07
2023-01-22T17:01:41.511Z,3.23
2023-01-22T17:04:08.719Z,2.97
2023-01-22T17:06:44.185Z,2.83
2023-01-22T17:09:20.488Z,2.73
2023-01-22T17:11:52.050Z,2.70
2023-01-22T17:14:21.626Z,2.60
2023-01-22T17:16:49.462Z,3.00
2023-01-22T17:19:16.982Z,2.80
2023-01-22T17:21:43.720Z,3.10
2023-01-22T17:24:12.171Z,2.70
2023-01-22T17:26:40.054Z,2.90
2023-01-22T17:29:09.468Z,2.60
2023-01-22T17:31:37.073Z,2.97
2023-01-22T17:34:04.282Z,3.03
2023-01-22T17:36:31.651Z,2.90
2023-01-22T17:38:58.386Z,3.03
2023-01-22T17:41:26.548Z,3.70
2023-01-22T17:43:55.421Z,3.17
2023-01-22T17:46:25.285Z,3.10
2023-01-22T17:48:52.651Z,3.57
2023-01-22T17:51:22.657Z,3.57
2023-01-22T17:53:50.999Z,3.37
2023-01-22T17:56:26.016Z,2.90
2023-01-22T17:58:56.938Z,2.80
2023-01-22T18:01:31.112Z,3.43
2023-01-22T18:04:00.300Z,3.37
2023-01-22T18:06:27.596Z,3.40
2023-01-22T18:08:55.768Z,3.40
2023-01-22T18:11:27.703Z,3.20
2023-01-22T18:13:59.578Z,4.27
2023-01-22T18:16:29.375Z,3.83
2023-01-22T18:18:58.354Z,3.90
2023-01-22T18:21:25.560Z,4.57
2023-01-22T18:23:52.428Z,4.17
2023-01-22T18:26:23.306Z,4.03
2023-01-22T18:28:52.345Z,3.57
2023-01-22T18:31:22.304Z,3.57
2023-01-22T18:33:49.328Z,3.50
2023-01-22T18:36:22.340Z,3.63
2023-01-22T18:38:49.855Z,3.70
2023-01-22T18:41:24.782Z,3.50
2023-01-22T18:43:55.355Z,3.77
2023-01-22T18:46:25.137Z,3.30
2023-01-22T18:48:57.550Z,3.20
2023-01-22T19:21:50.568Z,3.40
2023-01-22T19:24:27.118Z,3.40
2023-01-22T19:26:54.876Z,3.47
2023-01-22T19:29:24.070Z,3.03
2023-01-22T19:31:52.400Z,3.50
2023-01-22T19:34:23.816Z,4.03
2023-01-22T19:36:55.989Z,3.80
2023-01-22T19:39:25.547Z,3.13
2023-01-22T19:41:53.108Z,3.10
2023-01-22T19:44:20.324Z,3.80
2023-01-22T19:46:47.672Z,3.93
2023-01-22T19:49:15.122Z,2.60
2023-01-22T19:51:42.457Z,2.90
2023-01-22T19:54:10.521Z,3.13
2023-01-22T19:56:39.025Z,4.90
2023-01-22T19:59:10.234Z,4.37
2023-01-22T20:01:38.314Z,4.10
2023-01-22T20:04:12.092Z,5.50
2023-01-22T20:06:39.491Z,2.90
2023-01-22T20:09:06.213Z,3.30
2023-01-22T20:11:33.172Z,3.13
2023-01-22T20:13:59.958Z,3.13
2023-01-22T20:16:28.929Z,3.77
2023-01-22T20:19:00.139Z,4.00
2023-01-22T20:21:30.073Z,4.77
2023-01-22T20:23:56.799Z,2.87
2023-01-22T20:26:23.541Z,3.53
2023-01-22T20:28:50.501Z,3.37
2023-01-22T20:31:22.324Z,3.30
2023-01-22T20:33:52.740Z,3.40
2023-01-22T20:36:21.364Z,3.73
2023-01-22T20:38:52.617Z,3.37
2023-01-22T20:41:20.671Z,3.17
2023-01-22T20:43:48.083Z,3.23
2023-01-22T20:46:17.629Z,2.70
2023-01-22T20:48:45.711Z,3.00
2023-01-22T20:51:24.877Z,3.40
2023-01-22T20:53:53.207Z,3.50
2023-01-22T20:56:23.332Z,3.80
2023-01-22T20:58:57.312Z,3.20
2023-01-22T21:01:24.585Z,3.33
2023-01-22T21:03:51.354Z,3.33
2023-01-22T21:06:30.217Z,3.57
2023-01-22T21:08:58.389Z,2.97
2023-01-22T21:11:27.280Z,3.20
2023-01-22T21:13:56.240Z,3.57
2023-01-22T21:16:31.875Z,2.90
2023-01-22T21:19:01.403Z,3.53
2023-01-22T21:21:29.903Z,2.57
2023-01-22T21:23:57.072Z,2.67
2023-01-22T21:26:26.867Z,2.33
2023-01-22T21:29:02.443Z,2.40
2023-01-22T21:31:30.004Z,2.57
2023-01-22T21:34:04.665Z,2.67
2023-01-22T21:36:40.510Z,2.90
2023-01-22T21:39:09.894Z,2.87
2023-01-22T21:41:37.699Z,2.47
2023-01-22T21:44:23.988Z,2.73
2023-01-22T21:46:51.260Z,2.50
2023-01-22T21:49:22.526Z,3.43
2023-01-22T21:51:53.788Z,3.50
2023-01-22T21:54:36.910Z,3.33
2023-01-22T21:57:05.197Z,3.37
2023-01-22T21:59:32.260Z,3.00
2023-01-22T22:01:59.075Z,3.20
2023-01-22T22:04:26.949Z,3.00
2023-01-22T22:06:53.933Z,3.07
2023-01-22T22:09:23.692Z,3.30
2023-01-22T22:11:50.980Z,3.53
2023-01-22T22:14:21.625Z,3.77
2023-01-22T22:16:48.921Z,3.57
2023-01-22T22:19:17.010Z,4.40
2023-01-22T22:21:44.101Z,4.10
2023-01-22T22:24:11.180Z,3.37
2023-01-22T22:26:38.824Z,3.97
2023-01-22T22:29:07.155Z,3.43
2023-01-22T22:31:33.857Z,2.93
2023-01-22T22:34:00.658Z,3.57
2023-01-22T22:36:29.383Z,3.53
2023-01-22T22:38:56.486Z,3.80
2023-01-22T22:41:26.499Z,3.90
2023-01-22T22:43:54.960Z,4.30
2023-01-22T22:46:30.335Z,4.07
2023-01-22T22:48:59.395Z,3.80
2023-01-22T22:51:30.749Z,3.87
2023-01-22T22:54:00.659Z,4.20
2023-01-22T22:56:28.469Z,4.30
2023-01-22T22:58:55.950Z,4.17
2023-01-22T23:01:24.790Z,4.17
2023-01-22T23:03:53.514Z,3.50
2023-01-22T23:06:26.728Z,4.57
2023-01-22T23:08:55.326Z,4.53
2023-01-22T23:11:25.376Z,3.53
2023-01-22T23:13:52.881Z,4.00
2023-01-22T23:16:21.937Z,3.40
2023-01-22T23:18:50.824Z,3.17
2023-01-22T23:21:20.688Z,3.50
2023-01-22T23:23:47.481Z,3.07
2023-01-22T23:26:27.910Z,3.73
2023-01-22T23:28:57.881Z,3.37
2023-01-22T23:31:25.615Z,3.50
2023-01-22T23:33:53.635Z,3.27
2023-01-22T23:36:20.605Z,3.07
2023-01-22T23:38:47.608Z,3.23
2023-01-22T23:41:16.490Z,3.73
2023-01-22T23:43:43.585Z,3.43
2023-01-22T23:46:17.524Z,3.97
2023-01-22T23:48:44.549Z,3.50
2023-01-22T23:51:13.133Z,3.60
2023-01-22T23:53:42.045Z,3.30
2023-01-22T23:56:10.472Z,3.23
2023-01-22T23:58:37.703Z,3.40
